sensor_id;sensor_type;location;lat;lon;timestamp;P1;durP1;ratioP1;P2;durP2;ratioP2
8825;SDS011;4449;50.872;4.714;2023-03-14T00:01:26;2.10;;;1.00;;
8825;SDS011;4449;50.872;4.714;2023-03-14T00:03:54;3.10;;;1.10;;
8825;SDS011;4449;50.872;4.714;2023-03-14T00:06:22;2.83;;;1.40;;
8825;SDS011;4449;50.872;4.714;2023-03-14T00:08:51;4.30;;;1.33;;
8825;SDS011;4449;50.872;4.714;2023-03-14T00:11:20;3.90;;;1.20;;
8825;SDS011;4449;50.872;4.714;2023-03-14T00:13:48;1.53;;;1.00;;
8825;SDS011;4449;50.872;4.714;2023-03-14T00:16:16;3.03;;;1.47;;
8825;SDS011;4449;50.872;4.714;2023-03-14T00:18:43;3.50;;;1.57;;
8825;SDS011;4449;50.872;4.714;2023-03-14T00:21:11;5.80;;;1.40;;
8825;SDS011;4449;50.872;4.714;2023-03-14T00:23:40;6.27;;;1.87;;
8825;SDS011;4449;50.872;4.714;2023-03-14T00:26:11;3.23;;;1.50;;
8825;SDS011;4449;50.872;4.714;2023-03-14T00:28:39;3.50;;;1.37;;
8825;SDS011;4449;50.872;4.714;2023-03-14T00:31:07;4.87;;;1.80;;
8825;SDS011;4449;50.872;4.714;2023-03-14T00:33:35;6.37;;;2.00;;
8825;SDS011;4449;50.872;4.714;2023-03-14T00:36:04;3.40;;;1.87;;
8825;SDS011;4449;50.872;4.714;2023-03-14T00:38:34;3.93;;;1.80;;
8825;SDS011;4449;50.872;4.714;2023-03-14T00:41:03;4.40;;;1.93;;
8825;SDS011;4449;50.872;4.714;2023-03-14T00:43:32;4.83;;;1.67;;
8825;SDS011;4449;50.872;4.714;2023-03-14T00:46:00;5.73;;;2.00;;
8825;SDS011;4449;50.872;4.714;2023-03-14T00:48:28;4.37;;;1.77;;
8825;SDS011;4449;50.872;4.714;2023-03-14T00:50:56;5.27;;;2.10;;
8825;SDS011;4449;50.872;4.714;2023-03-14T00:53:24;2.87;;;1.70;;
8825;SDS011;4449;50.872;4.714;2023-03-14T00:55:51;4.23;;;1.70;;
8825;SDS011;4449;50.872;4.714;2023-03-14T00:58:19;5.57;;;1.70;;
8825;SDS011;4449;50.872;4.714;2023-03-14T01:00:48;2.10;;;1.50;;
8825;SDS011;4449;50.872;4.714;2023-03-14T01:03:16;7.60;;;1.83;;
8825;SDS011;4449;50.872;4.714;2023-03-14T01:05:44;4.20;;;1.60;;
8825;SDS011;4449;50.872;4.714;2023-03-14T01:08:12;5.93;;;1.47;;
8825;SDS011;4449;50.872;4.714;2023-03-14T01:10:40;3.33;;;1.67;;
8825;SDS011;4449;50.872;4.714;2023-03-14T01:13:08;2.00;;;1.60;;
8825;SDS011;4449;50.872;4.714;2023-03-14T01:15:37;8.80;;;2.13;;
8825;SDS011;4449;50.872;4.714;2023-03-14T01:18:06;5.37;;;1.40;;
8825;SDS011;4449;50.872;4.714;2023-03-14T01:20:34;5.70;;;1.60;;
8825;SDS011;4449;50.872;4.714;2023-03-14T01:23:04;5.77;;;1.73;;
8825;SDS011;4449;50.872;4.714;2023-03-14T01:25:32;8.57;;;2.10;;
8825;SDS011;4449;50.872;4.714;2023-03-14T01:27:59;8.03;;;2.33;;
8825;SDS011;4449;50.872;4.714;2023-03-14T01:30:27;5.43;;;2.33;;
8825;SDS011;4449;50.872;4.714;2023-03-14T01:32:55;6.63;;;2.10;;
8825;SDS011;4449;50.872;4.714;2023-03-14T01:35:24;5.43;;;2.20;;
8825;SDS011;4449;50.872;4.714;2023-03-14T01:37:52;5.07;;;2.07;;
8825;SDS011;4449;50.872;4.714;2023-03-14T01:40:20;4.43;;;1.60;;
8825;SDS011;4449;50.872;4.714;2023-03-14T01:42:53;4.93;;;1.90;;
8825;SDS011;4449;50.872;4.714;2023-03-14T01:48:08;6.33;;;2.37;;
8825;SDS011;4449;50.872;4.714;2023-03-14T01:50:37;7.90;;;1.73;;
8825;SDS011;4449;50.872;4.714;2023-03-14T01:53:05;9.10;;;1.73;;
8825;SDS011;4449;50.872;4.714;2023-03-14T01:55:32;4.00;;;2.10;;
8825;SDS011;4449;50.872;4.714;2023-03-14T01:58:00;3.47;;;1.80;;
8825;SDS011;4449;50.872;4.714;2023-03-14T02:00:30;4.73;;;1.53;;
8825;SDS011;4449;50.872;4.714;2023-03-14T02:02:58;5.87;;;1.50;;
8825;SDS011;4449;50.872;4.714;2023-03-14T02:05:28;3.10;;;1.70;;
8825;SDS011;4449;50.872;4.714;2023-03-14T02:08:00;10.67;;;1.83;;
8825;SDS011;4449;50.872;4.714;2023-03-14T02:10:31;2.33;;;1.10;;
8825;SDS011;4449;50.872;4.714;2023-03-14T02:12:59;3.77;;;1.10;;
8825;SDS011;4449;50.872;4.714;2023-03-14T02:15:28;3.80;;;1.40;;
8825;SDS011;4449;50.872;4.714;2023-03-14T02:17:56;3.37;;;1.30;;
8825;SDS011;4449;50.872;4.714;2023-03-14T02:20:27;3.77;;;1.30;;
8825;SDS011;4449;50.872;4.714;2023-03-14T02:22:55;1.30;;;1.20;;
8825;SDS011;4449;50.872;4.714;2023-03-14T02:25:26;4.00;;;0.93;;
8825;SDS011;4449;50.872;4.714;2023-03-14T02:27:57;2.50;;;1.20;;
8825;SDS011;4449;50.872;4.714;2023-03-14T02:30:26;3.13;;;1.43;;
8825;SDS011;4449;50.872;4.714;2023-03-14T02:32:55;3.73;;;1.10;;
8825;SDS011;4449;50.872;4.714;2023-03-14T02:35:26;4.50;;;1.00;;
8825;SDS011;4449;50.872;4.714;2023-03-14T02:37:55;4.10;;;1.10;;
8825;SDS011;4449;50.872;4.714;2023-03-14T02:40:24;4.43;;;1.23;;
8825;SDS011;4449;50.872;4.714;2023-03-14T02:42:51;3.40;;;1.10;;
8825;SDS011;4449;50.872;4.714;2023-03-14T02:45:28;2.37;;;0.77;;
8825;SDS011;4449;50.872;4.714;2023-03-14T02:47:59;1.30;;;1.00;;
8825;SDS011;4449;50.872;4.714;2023-03-14T02:50:30;2.40;;;1.40;;
8825;SDS011;4449;50.872;4.714;2023-03-14T02:53:00;5.33;;;1.33;;
8825;SDS011;4449;50.872;4.714;2023-03-14T02:55:28;4.33;;;1.00;;
8825;SDS011;4449;50.872;4.714;2023-03-14T02:57:56;4.73;;;1.43;;
8825;SDS011;4449;50.872;4.714;2023-03-14T03:00:24;3.47;;;1.00;;
8825;SDS011;4449;50.872;4.714;2023-03-14T03:02:53;1.50;;;0.80;;
8825;SDS011;4449;50.872;4.714;2023-03-14T03:05:21;3.00;;;1.40;;
8825;SDS011;4449;50.872;4.714;2023-03-14T03:07:49;1.90;;;1.10;;
8825;SDS011;4449;50.872;4.714;2023-03-14T03:10:17;2.67;;;0.90;;
8825;SDS011;4449;50.872;4.714;2023-03-14T03:12:44;1.23;;;1.13;;
8825;SDS011;4449;50.872;4.714;2023-03-14T03:15:12;6.17;;;1.50;;
8825;SDS011;4449;50.872;4.714;2023-03-14T03:17:40;7.13;;;1.67;;
8825;SDS011;4449;50.872;4.714;2023-03-14T03:20:10;6.30;;;1.80;;
8825;SDS011;4449;50.872;4.714;2023-03-14T03:22:38;3.13;;;1.47;;
8825;SDS011;4449;50.872;4.714;2023-03-14T03:25:06;3.60;;;1.40;;
8825;SDS011;4449;50.872;4.714;2023-03-14T03:27:35;3.97;;;1.60;;
8825;SDS011;4449;50.872;4.714;2023-03-14T03:30:03;3.07;;;1.90;;
8825;SDS011;4449;50.872;4.714;2023-03-14T03:32:31;1.73;;;1.50;;
8825;SDS011;4449;50.872;4.714;2023-03-14T03:34:59;7.37;;;2.10;;
8825;SDS011;4449;50.872;4.714;2023-03-14T03:37:28;4.50;;;2.53;;
8825;SDS011;4449;50.872;4.714;2023-03-14T03:39:57;5.97;;;2.13;;
8825;SDS011;4449;50.872;4.714;2023-03-14T03:42:26;3.97;;;2.00;;
8825;SDS011;4449;50.872;4.714;2023-03-14T03:44:54;4.37;;;1.80;;
8825;SDS011;4449;50.872;4.714;2023-03-14T03:47:21;5.10;;;2.17;;
8825;SDS011;4449;50.872;4.714;2023-03-14T03:49:49;4.80;;;1.90;;
8825;SDS011;4449;50.872;4.714;2023-03-14T03:52:17;9.67;;;2.57;;
8825;SDS011;4449;50.872;4.714;2023-03-14T03:54:47;6.63;;;2.53;;
8825;SDS011;4449;50.872;4.714;2023-03-14T03:57:15;7.43;;;2.20;;
8825;SDS011;4449;50.872;4.714;2023-03-14T03:59:42;6.27;;;2.90;;
8825;SDS011;4449;50.872;4.714;2023-03-14T04:02:10;6.60;;;1.60;;
8825;SDS011;4449;50.872;4.714;2023-03-14T04:04:38;4.00;;;2.00;;
8825;SDS011;4449;50.872;4.714;2023-03-14T04:07:06;3.83;;;1.93;;
8825;SDS011;4449;50.872;4.714;2023-03-14T04:09:34;3.67;;;1.50;;
8825;SDS011;4449;50.872;4.714;2023-03-14T04:12:04;5.40;;;1.97;;
8825;SDS011;4449;50.872;4.714;2023-03-14T04:14:31;4.60;;;2.00;;
8825;SDS011;4449;50.872;4.714;2023-03-14T04:16:59;5.27;;;2.00;;
8825;SDS011;4449;50.872;4.714;2023-03-14T04:19:27;5.60;;;2.00;;
8825;SDS011;4449;50.872;4.714;2023-03-14T04:21:55;8.33;;;1.87;;
8825;SDS011;4449;50.872;4.714;2023-03-14T04:24:22;2.50;;;1.60;;
8825;SDS011;4449;50.872;4.714;2023-03-14T04:26:50;9.13;;;2.40;;
8825;SDS011;4449;50.872;4.714;2023-03-14T04:29:19;1.90;;;1.80;;
8825;SDS011;4449;50.872;4.714;2023-03-14T04:31:47;5.17;;;2.27;;
8825;SDS011;4449;50.872;4.714;2023-03-14T04:34:15;9.40;;;2.00;;
8825;SDS011;4449;50.872;4.714;2023-03-14T04:36:43;11.10;;;3.13;;
8825;SDS011;4449;50.872;4.714;2023-03-14T04:39:11;2.90;;;2.17;;
8825;SDS011;4449;50.872;4.714;2023-03-14T04:41:39;4.47;;;2.10;;
8825;SDS011;4449;50.872;4.714;2023-03-14T04:44:06;3.07;;;2.00;;
8825;SDS011;4449;50.872;4.714;2023-03-14T04:46:36;3.67;;;2.17;;
8825;SDS011;4449;50.872;4.714;2023-03-14T04:49:03;6.73;;;2.00;;
8825;SDS011;4449;50.872;4.714;2023-03-14T04:51:31;1.53;;;1.40;;
8825;SDS011;4449;50.872;4.714;2023-03-14T04:53:59;2.97;;;1.90;;
8825;SDS011;4449;50.872;4.714;2023-03-14T04:56:27;3.47;;;1.70;;
8825;SDS011;4449;50.872;4.714;2023-03-14T04:58:55;3.80;;;1.60;;
8825;SDS011;4449;50.872;4.714;2023-03-14T05:01:22;3.13;;;1.97;;
8825;SDS011;4449;50.872;4.714;2023-03-14T05:03:51;1.63;;;1.50;;
8825;SDS011;4449;50.872;4.714;2023-03-14T05:06:19;2.27;;;1.57;;
8825;SDS011;4449;50.872;4.714;2023-03-14T05:08:47;3.33;;;1.47;;
8825;SDS011;4449;50.872;4.714;2023-03-14T05:11:14;2.37;;;1.40;;
8825;SDS011;4449;50.872;4.714;2023-03-14T05:13:42;3.27;;;1.83;;
8825;SDS011;4449;50.872;4.714;2023-03-14T05:16:10;1.67;;;1.57;;
8825;SDS011;4449;50.872;4.714;2023-03-14T05:18:38;2.37;;;2.00;;
8825;SDS011;4449;50.872;4.714;2023-03-14T05:21:08;2.47;;;1.47;;
8825;SDS011;4449;50.872;4.714;2023-03-14T05:23:35;2.00;;;1.53;;
8825;SDS011;4449;50.872;4.714;2023-03-14T05:26:03;1.57;;;1.53;;
8825;SDS011;4449;50.872;4.714;2023-03-14T05:28:31;3.47;;;1.93;;
8825;SDS011;4449;50.872;4.714;2023-03-14T05:30:58;2.73;;;1.80;;
8825;SDS011;4449;50.872;4.714;2023-03-14T05:33:26;1.70;;;1.60;;
8825;SDS011;4449;50.872;4.714;2023-03-14T05:35:54;4.00;;;1.40;;
8825;SDS011;4449;50.872;4.714;2023-03-14T05:38:23;1.90;;;1.73;;
8825;SDS011;4449;50.872;4.714;2023-03-14T05:40:51;2.37;;;1.80;;
8825;SDS011;4449;50.872;4.714;2023-03-14T05:43:19;2.57;;;1.47;;
8825;SDS011;4449;50.872;4.714;2023-03-14T05:45:46;1.73;;;1.63;;
8825;SDS011;4449;50.872;4.714;2023-03-14T05:48:14;2.57;;;1.53;;
8825;SDS011;4449;50.872;4.714;2023-03-14T05:50:43;1.60;;;1.50;;
8825;SDS011;4449;50.872;4.714;2023-03-14T05:53:11;1.97;;;1.30;;
8825;SDS011;4449;50.872;4.714;2023-03-14T05:55:40;1.90;;;1.60;;
8825;SDS011;4449;50.872;4.714;2023-03-14T05:58:08;2.03;;;1.90;;
8825;SDS011;4449;50.872;4.714;2023-03-14T06:00:36;1.67;;;1.67;;
8825;SDS011;4449;50.872;4.714;2023-03-14T06:03:04;2.10;;;1.80;;
8825;SDS011;4449;50.872;4.714;2023-03-14T06:05:31;2.90;;;2.40;;
8825;SDS011;4449;50.872;4.714;2023-03-14T06:07:59;3.50;;;1.97;;
8825;SDS011;4449;50.872;4.714;2023-03-14T06:10:27;2.87;;;2.53;;
8825;SDS011;4449;50.872;4.714;2023-03-14T06:12:56;2.37;;;2.07;;
8825;SDS011;4449;50.872;4.714;2023-03-14T06:15:24;2.70;;;2.50;;
8825;SDS011;4449;50.872;4.714;2023-03-14T06:17:53;2.97;;;2.30;;
8825;SDS011;4449;50.872;4.714;2023-03-14T06:20:21;3.73;;;2.50;;
8825;SDS011;4449;50.872;4.714;2023-03-14T06:22:49;5.00;;;2.90;;
8825;SDS011;4449;50.872;4.714;2023-03-14T06:25:17;4.47;;;3.17;;
8825;SDS011;4449;50.872;4.714;2023-03-14T06:27:45;3.40;;;3.10;;
8825;SDS011;4449;50.872;4.714;2023-03-14T06:30:14;3.13;;;2.60;;
8825;SDS011;4449;50.872;4.714;2023-03-14T06:32:42;6.17;;;2.80;;
8825;SDS011;4449;50.872;4.714;2023-03-14T06:35:10;4.10;;;3.77;;
8825;SDS011;4449;50.872;4.714;2023-03-14T06:37:38;3.60;;;3.30;;
8825;SDS011;4449;50.872;4.714;2023-03-14T06:40:06;3.43;;;3.17;;
8825;SDS011;4449;50.872;4.714;2023-03-14T06:42:34;8.13;;;3.47;;
8825;SDS011;4449;50.872;4.714;2023-03-14T06:45:02;5.90;;;3.30;;
8825;SDS011;4449;50.872;4.714;2023-03-14T06:47:31;4.17;;;3.40;;
8825;SDS011;4449;50.872;4.714;2023-03-14T06:49:59;4.60;;;3.27;;
8825;SDS011;4449;50.872;4.714;2023-03-14T06:52:27;4.90;;;3.60;;
8825;SDS011;4449;50.872;4.714;2023-03-14T06:54:55;4.07;;;3.67;;
8825;SDS011;4449;50.872;4.714;2023-03-14T06:57:23;4.67;;;3.70;;
8825;SDS011;4449;50.872;4.714;2023-03-14T06:59:50;3.40;;;2.83;;
8825;SDS011;4449;50.872;4.714;2023-03-14T07:02:18;4.00;;;3.60;;
8825;SDS011;4449;50.872;4.714;2023-03-14T07:04:48;6.70;;;3.07;;
8825;SDS011;4449;50.872;4.714;2023-03-14T07:07:16;3.33;;;2.57;;
8825;SDS011;4449;50.872;4.714;2023-03-14T07:09:44;2.90;;;2.50;;
8825;SDS011;4449;50.872;4.714;2023-03-14T07:12:12;2.60;;;1.90;;
8825;SDS011;4449;50.872;4.714;2023-03-14T07:14:39;1.60;;;1.50;;
8825;SDS011;4449;50.872;4.714;2023-03-14T07:17:07;1.10;;;1.03;;
8825;SDS011;4449;50.872;4.714;2023-03-14T07:19:35;1.40;;;0.90;;
8825;SDS011;4449;50.872;4.714;2023-03-14T07:22:05;1.00;;;1.00;;
8825;SDS011;4449;50.872;4.714;2023-03-14T07:24:33;0.90;;;0.90;;
8825;SDS011;4449;50.872;4.714;2023-03-14T07:27:00;1.20;;;1.20;;
8825;SDS011;4449;50.872;4.714;2023-03-14T07:29:28;2.80;;;1.30;;
8825;SDS011;4449;50.872;4.714;2023-03-14T07:31:56;1.80;;;1.13;;
8825;SDS011;4449;50.872;4.714;2023-03-14T07:34:24;2.90;;;1.27;;
8825;SDS011;4449;50.872;4.714;2023-03-14T07:36:52;1.10;;;1.10;;
8825;SDS011;4449;50.872;4.714;2023-03-14T07:39:21;2.93;;;1.20;;
8825;SDS011;4449;50.872;4.714;2023-03-14T07:41:48;1.50;;;1.40;;
8825;SDS011;4449;50.872;4.714;2023-03-14T07:44:16;3.50;;;1.37;;
8825;SDS011;4449;50.872;4.714;2023-03-14T08:40:55;3.10;;;2.67;;
8825;SDS011;4449;50.872;4.714;2023-03-14T08:43:24;4.60;;;2.57;;
8825;SDS011;4449;50.872;4.714;2023-03-14T08:45:52;6.10;;;2.23;;
8825;SDS011;4449;50.872;4.714;2023-03-14T08:48:20;2.03;;;1.73;;
8825;SDS011;4449;50.872;4.714;2023-03-14T08:50:48;3.07;;;1.90;;
8825;SDS011;4449;50.872;4.714;2023-03-14T08:53:16;4.40;;;2.43;;
8825;SDS011;4449;50.872;4.714;2023-03-14T08:55:46;4.10;;;2.53;;
8825;SDS011;4449;50.872;4.714;2023-03-14T08:58:15;2.50;;;2.20;;
8825;SDS011;4449;50.872;4.714;2023-03-14T09:00:45;2.50;;;1.90;;
8825;SDS011;4449;50.872;4.714;2023-03-14T09:03:12;7.07;;;1.97;;
8825;SDS011;4449;50.872;4.714;2023-03-14T09:05:41;2.77;;;1.90;;
8825;SDS011;4449;50.872;4.714;2023-03-14T09:08:09;2.70;;;1.57;;
8825;SDS011;4449;50.872;4.714;2023-03-14T09:10:37;3.60;;;1.70;;
8825;SDS011;4449;50.872;4.714;2023-03-14T09:13:05;2.13;;;2.00;;
8825;SDS011;4449;50.872;4.714;2023-03-14T09:15:34;5.80;;;2.07;;
8825;SDS011;4449;50.872;4.714;2023-03-14T09:18:02;3.30;;;2.90;;
8825;SDS011;4449;50.872;4.714;2023-03-14T09:20:29;4.20;;;2.60;;
8825;SDS011;4449;50.872;4.714;2023-03-14T09:22:57;2.57;;;2.47;;
8825;SDS011;4449;50.872;4.714;2023-03-14T09:25:25;2.57;;;2.37;;
8825;SDS011;4449;50.872;4.714;2023-03-14T09:27:53;5.77;;;2.50;;
8825;SDS011;4449;50.872;4.714;2023-03-14T09:30:21;3.90;;;2.37;;
8825;SDS011;4449;50.872;4.714;2023-03-14T09:32:50;4.43;;;2.30;;
8825;SDS011;4449;50.872;4.714;2023-03-14T09:35:18;4.30;;;2.00;;
8825;SDS011;4449;50.872;4.714;2023-03-14T09:37:45;1.83;;;1.70;;
8825;SDS011;4449;50.872;4.714;2023-03-14T09:40:14;3.30;;;2.00;;
8825;SDS011;4449;50.872;4.714;2023-03-14T10:41:15;5.37;;;2.60;;
8825;SDS011;4449;50.872;4.714;2023-03-14T10:43:44;4.27;;;1.70;;
8825;SDS011;4449;50.872;4.714;2023-03-14T10:46:14;1.60;;;1.50;;
8825;SDS011;4449;50.872;4.714;2023-03-14T10:48:43;1.70;;;1.53;;
8825;SDS011;4449;50.872;4.714;2023-03-14T10:51:17;1.90;;;1.73;;
8825;SDS011;4449;50.872;4.714;2023-03-14T10:53:46;4.93;;;1.70;;
8825;SDS011;4449;50.872;4.714;2023-03-14T10:56:17;1.70;;;1.40;;
8825;SDS011;4449;50.872;4.714;2023-03-14T10:58:45;3.63;;;1.20;;
8825;SDS011;4449;50.872;4.714;2023-03-14T11:03:58;2.77;;;1.20;;
8825;SDS011;4449;50.872;4.714;2023-03-14T11:06:30;2.00;;;0.80;;
8825;SDS011;4449;50.872;4.714;2023-03-14T11:09:00;1.20;;;1.10;;
8825;SDS011;4449;50.872;4.714;2023-03-14T11:11:33;1.90;;;1.20;;
8825;SDS011;4449;50.872;4.714;2023-03-14T11:14:04;0.80;;;0.80;;
8825;SDS011;4449;50.872;4.714;2023-03-14T11:16:38;0.93;;;0.70;;
8825;SDS011;4449;50.872;4.714;2023-03-14T11:19:13;2.10;;;1.50;;
8825;SDS011;4449;50.872;4.714;2023-03-14T11:21:44;2.30;;;0.93;;
8825;SDS011;4449;50.872;4.714;2023-03-14T11:24:18;2.73;;;1.40;;
8825;SDS011;4449;50.872;4.714;2023-03-14T11:26:51;2.43;;;1.13;;
8825;SDS011;4449;50.872;4.714;2023-03-14T11:29:21;1.00;;;0.70;;
8825;SDS011;4449;50.872;4.714;2023-03-14T11:31:50;0.80;;;0.80;;
8825;SDS011;4449;50.872;4.714;2023-03-14T11:34:24;1.80;;;0.60;;
8825;SDS011;4449;50.872;4.714;2023-03-14T11:36:56;0.83;;;0.80;;
8825;SDS011;4449;50.872;4.714;2023-03-14T11:39:29;1.20;;;1.10;;
8825;SDS011;4449;50.872;4.714;2023-03-14T11:42:00;1.40;;;0.87;;
8825;SDS011;4449;50.872;4.714;2023-03-14T11:44:29;0.90;;;0.90;;
8825;SDS011;4449;50.872;4.714;2023-03-14T11:47:00;1.70;;;0.93;;
8825;SDS011;4449;50.872;4.714;2023-03-14T11:49:31;0.80;;;0.80;;
8825;SDS011;4449;50.872;4.714;2023-03-14T11:52:02;1.77;;;1.10;;
8825;SDS011;4449;50.872;4.714;2023-03-14T11:54:33;0.97;;;0.97;;
8825;SDS011;4449;50.872;4.714;2023-03-14T11:57:03;2.07;;;0.90;;
8825;SDS011;4449;50.872;4.714;2023-03-14T11:59:33;2.10;;;0.90;;
8825;SDS011;4449;50.872;4.714;2023-03-14T12:02:09;1.57;;;0.70;;
8825;SDS011;4449;50.872;4.714;2023-03-14T12:04:43;0.70;;;0.70;;
8825;SDS011;4449;50.872;4.714;2023-03-14T12:07:17;1.27;;;0.70;;
8825;SDS011;4449;50.872;4.714;2023-03-14T12:09:46;3.00;;;1.00;;
8825;SDS011;4449;50.872;4.714;2023-03-14T12:12:16;1.60;;;1.37;;
8825;SDS011;4449;50.872;4.714;2023-03-14T12:14:46;3.90;;;1.00;;
8825;SDS011;4449;50.872;4.714;2023-03-14T12:17:20;3.20;;;0.93;;
8825;SDS011;4449;50.872;4.714;2023-03-14T12:19:58;0.90;;;0.90;;
8825;SDS011;4449;50.872;4.714;2023-03-14T12:22:30;2.40;;;0.97;;
8825;SDS011;4449;50.872;4.714;2023-03-14T12:25:00;0.90;;;0.90;;
8825;SDS011;4449;50.872;4.714;2023-03-14T12:30:34;0.77;;;0.77;;
8825;SDS011;4449;50.872;4.714;2023-03-14T12:33:19;1.23;;;0.90;;
8825;SDS011;4449;50.872;4.714;2023-03-14T12:35:48;0.80;;;0.80;;
8825;SDS011;4449;50.872;4.714;2023-03-14T12:38:18;1.00;;;1.00;;
8825;SDS011;4449;50.872;4.714;2023-03-14T12:40:48;2.33;;;0.90;;
8825;SDS011;4449;50.872;4.714;2023-03-14T12:43:25;0.93;;;0.93;;
8825;SDS011;4449;50.872;4.714;2023-03-14T12:46:08;1.63;;;1.00;;
8825;SDS011;4449;50.872;4.714;2023-03-14T12:48:37;1.07;;;0.57;;
8825;SDS011;4449;50.872;4.714;2023-03-14T12:51:11;0.80;;;0.80;;
8825;SDS011;4449;50.872;4.714;2023-03-14T12:53:52;3.37;;;0.97;;
8825;SDS011;4449;50.872;4.714;2023-03-14T12:56:24;2.00;;;1.20;;
8825;SDS011;4449;50.872;4.714;2023-03-14T12:59:00;3.77;;;1.53;;
8825;SDS011;4449;50.872;4.714;2023-03-14T13:01:31;4.60;;;1.90;;
8825;SDS011;4449;50.872;4.714;2023-03-14T13:04:03;3.13;;;1.30;;
8825;SDS011;4449;50.872;4.714;2023-03-14T13:06:50;2.70;;;1.97;;
8825;SDS011;4449;50.872;4.714;2023-03-14T13:09:35;3.30;;;1.23;;
8825;SDS011;4449;50.872;4.714;2023-03-14T13:12:08;6.93;;;1.77;;
8825;SDS011;4449;50.872;4.714;2023-03-14T13:14:36;3.23;;;1.00;;
8825;SDS011;4449;50.872;4.714;2023-03-14T13:17:10;2.30;;;1.30;;
8825;SDS011;4449;50.872;4.714;2023-03-14T13:19:38;1.75;;;1.45;;
8825;SDS011;4449;50.872;4.714;2023-03-14T13:22:14;2.10;;;1.33;;
8825;SDS011;4449;50.872;4.714;2023-03-14T13:24:42;1.53;;;1.10;;
8825;SDS011;4449;50.872;4.714;2023-03-14T13:27:14;1.67;;;1.57;;
8825;SDS011;4449;50.872;4.714;2023-03-14T13:29:48;3.93;;;1.30;;
8825;SDS011;4449;50.872;4.714;2023-03-14T13:32:19;4.03;;;1.63;;
8825;SDS011;4449;50.872;4.714;2023-03-14T13:34:47;1.37;;;1.20;;
8825;SDS011;4449;50.872;4.714;2023-03-14T13:37:16;1.57;;;1.40;;
8825;SDS011;4449;50.872;4.714;2023-03-14T13:39:44;4.50;;;1.77;;
8825;SDS011;4449;50.872;4.714;2023-03-14T13:42:16;4.40;;;1.60;;
8825;SDS011;4449;50.872;4.714;2023-03-14T13:44:44;9.90;;;1.80;;
8825;SDS011;4449;50.872;4.714;2023-03-14T13:47:13;2.83;;;1.07;;
8825;SDS011;4449;50.872;4.714;2023-03-14T13:49:43;3.03;;;1.47;;
8825;SDS011;4449;50.872;4.714;2023-03-14T13:54:58;3.47;;;1.50;;
8825;SDS011;4449;50.872;4.714;2023-03-14T13:57:31;8.63;;;2.13;;
8825;SDS011;4449;50.872;4.714;2023-03-14T14:00:16;5.50;;;1.87;;
8825;SDS011;4449;50.872;4.714;2023-03-14T14:02:44;11.43;;;1.60;;
8825;SDS011;4449;50.872;4.714;2023-03-14T14:05:14;3.80;;;1.87;;
8825;SDS011;4449;50.872;4.714;2023-03-14T14:07:42;4.43;;;2.13;;
8825;SDS011;4449;50.872;4.714;2023-03-14T14:10:11;6.87;;;1.73;;
8825;SDS011;4449;50.872;4.714;2023-03-14T14:12:41;11.87;;;2.20;;
8825;SDS011;4449;50.872;4.714;2023-03-14T14:15:11;6.40;;;1.93;;
8825;SDS011;4449;50.872;4.714;2023-03-14T14:17:42;6.53;;;1.90;;
8825;SDS011;4449;50.872;4.714;2023-03-14T14:20:12;10.17;;;2.17;;
8825;SDS011;4449;50.872;4.714;2023-03-14T14:22:44;7.17;;;2.60;;
8825;SDS011;4449;50.872;4.714;2023-03-14T14:25:13;9.27;;;1.87;;
8825;SDS011;4449;50.872;4.714;2023-03-14T14:27:42;4.07;;;2.00;;
8825;SDS011;4449;50.872;4.714;2023-03-14T14:30:24;5.93;;;1.70;;
8825;SDS011;4449;50.872;4.714;2023-03-14T14:32:52;10.80;;;2.30;;
8825;SDS011;4449;50.872;4.714;2023-03-14T14:35:24;8.23;;;2.17;;
8825;SDS011;4449;50.872;4.714;2023-03-14T14:37:53;9.20;;;3.00;;
8825;SDS011;4449;50.872;4.714;2023-03-14T14:40:22;4.03;;;1.90;;
8825;SDS011;4449;50.872;4.714;2023-03-14T14:42:51;5.57;;;2.27;;
8825;SDS011;4449;50.872;4.714;2023-03-14T14:45:19;11.00;;;3.60;;
8825;SDS011;4449;50.872;4.714;2023-03-14T14:47:48;10.93;;;2.63;;
8825;SDS011;4449;50.872;4.714;2023-03-14T14:50:20;4.90;;;2.27;;
8825;SDS011;4449;50.872;4.714;2023-03-14T14:52:57;6.17;;;2.47;;
8825;SDS011;4449;50.872;4.714;2023-03-14T14:55:28;9.30;;;2.30;;
8825;SDS011;4449;50.872;4.714;2023-03-14T14:57:57;8.13;;;3.03;;
8825;SDS011;4449;50.872;4.714;2023-03-14T15:00:25;5.73;;;2.77;;
8825;SDS011;4449;50.872;4.714;2023-03-14T15:02:54;7.87;;;2.03;;
8825;SDS011;4449;50.872;4.714;2023-03-14T15:05:23;4.93;;;1.88;;
8825;SDS011;4449;50.872;4.714;2023-03-14T15:07:51;5.10;;;1.73;;
8825;SDS011;4449;50.872;4.714;2023-03-14T15:10:21;6.40;;;1.50;;
8825;SDS011;4449;50.872;4.714;2023-03-14T15:12:50;2.77;;;1.20;;
8825;SDS011;4449;50.872;4.714;2023-03-14T15:15:18;3.73;;;1.67;;
8825;SDS011;4449;50.872;4.714;2023-03-14T15:17:45;5.40;;;1.70;;
8825;SDS011;4449;50.872;4.714;2023-03-14T15:20:14;2.47;;;1.77;;
8825;SDS011;4449;50.872;4.714;2023-03-14T15:22:41;4.07;;;1.67;;
8825;SDS011;4449;50.872;4.714;2023-03-14T15:25:10;2.60;;;1.10;;
8825;SDS011;4449;50.872;4.714;2023-03-14T15:27:39;4.27;;;1.40;;
8825;SDS011;4449;50.872;4.714;2023-03-14T15:30:09;2.80;;;1.37;;
8825;SDS011;4449;50.872;4.714;2023-03-14T15:32:37;2.93;;;1.60;;
8825;SDS011;4449;50.872;4.714;2023-03-14T15:35:05;3.50;;;1.03;;
8825;SDS011;4449;50.872;4.714;2023-03-14T15:37:34;3.20;;;1.50;;
8825;SDS011;4449;50.872;4.714;2023-03-14T15:40:02;1.23;;;1.10;;
8825;SDS011;4449;50.872;4.714;2023-03-14T15:42:35;4.67;;;1.47;;
8825;SDS011;4449;50.872;4.714;2023-03-14T15:45:05;3.40;;;1.27;;
8825;SDS011;4449;50.872;4.714;2023-03-14T15:47:33;1.73;;;1.30;;
8825;SDS011;4449;50.872;4.714;2023-03-14T15:50:01;4.83;;;1.50;;
8825;SDS011;4449;50.872;4.714;2023-03-14T15:52:29;1.60;;;1.27;;
8825;SDS011;4449;50.872;4.714;2023-03-14T15:54:57;2.60;;;1.10;;
8825;SDS011;4449;50.872;4.714;2023-03-14T15:57:25;2.37;;;1.10;;
8825;SDS011;4449;50.872;4.714;2023-03-14T15:59:53;1.90;;;1.17;;
8825;SDS011;4449;50.872;4.714;2023-03-14T16:02:22;5.80;;;1.20;;
8825;SDS011;4449;50.872;4.714;2023-03-14T16:04:50;4.87;;;1.30;;
8825;SDS011;4449;50.872;4.714;2023-03-14T16:07:18;2.00;;;1.37;;
8825;SDS011;4449;50.872;4.714;2023-03-14T16:09:49;2.63;;;1.23;;
8825;SDS011;4449;50.872;4.714;2023-03-14T16:12:17;3.43;;;1.33;;
8825;SDS011;4449;50.872;4.714;2023-03-14T16:14:46;6.83;;;1.97;;
8825;SDS011;4449;50.872;4.714;2023-03-14T16:17:14;3.10;;;1.00;;
8825;SDS011;4449;50.872;4.714;2023-03-14T16:19:43;2.27;;;2.07;;
8825;SDS011;4449;50.872;4.714;2023-03-14T16:22:12;6.70;;;2.30;;
8825;SDS011;4449;50.872;4.714;2023-03-14T16:24:39;4.93;;;1.60;;
8825;SDS011;4449;50.872;4.714;2023-03-14T16:27:07;4.30;;;1.60;;
8825;SDS011;4449;50.872;4.714;2023-03-14T16:29:39;8.33;;;2.17;;
8825;SDS011;4449;50.872;4.714;2023-03-14T16:32:08;8.07;;;1.90;;
8825;SDS011;4449;50.872;4.714;2023-03-14T16:34:37;6.97;;;1.53;;
8825;SDS011;4449;50.872;4.714;2023-03-14T16:37:07;4.80;;;1.63;;
8825;SDS011;4449;50.872;4.714;2023-03-14T16:39:35;12.40;;;2.33;;
8825;SDS011;4449;50.872;4.714;2023-03-14T16:42:03;6.57;;;1.93;;
8825;SDS011;4449;50.872;4.714;2023-03-14T16:44:30;7.80;;;2.00;;
8825;SDS011;4449;50.872;4.714;2023-03-14T16:46:58;14.17;;;3.13;;
8825;SDS011;4449;50.872;4.714;2023-03-14T16:49:26;5.40;;;2.63;;
8825;SDS011;4449;50.872;4.714;2023-03-14T16:51:54;7.50;;;1.87;;
8825;SDS011;4449;50.872;4.714;2023-03-14T16:54:23;5.73;;;2.23;;
8825;SDS011;4449;50.872;4.714;2023-03-14T16:56:51;8.70;;;2.33;;
8825;SDS011;4449;50.872;4.714;2023-03-14T16:59:19;8.77;;;2.47;;
8825;SDS011;4449;50.872;4.714;2023-03-14T17:01:46;7.87;;;2.90;;
8825;SDS011;4449;50.872;4.714;2023-03-14T17:04:14;9.37;;;2.83;;
8825;SDS011;4449;50.872;4.714;2023-03-14T17:06:43;13.03;;;2.83;;
8825;SDS011;4449;50.872;4.714;2023-03-14T17:09:10;4.93;;;2.53;;
8825;SDS011;4449;50.872;4.714;2023-03-14T17:11:39;12.73;;;3.00;;
8825;SDS011;4449;50.872;4.714;2023-03-14T17:14:07;14.67;;;2.40;;
8825;SDS011;4449;50.872;4.714;2023-03-14T17:16:35;4.93;;;2.13;;
8825;SDS011;4449;50.872;4.714;2023-03-14T17:19:03;9.20;;;2.53;;
8825;SDS011;4449;50.872;4.714;2023-03-14T17:21:33;3.20;;;2.00;;
8825;SDS011;4449;50.872;4.714;2023-03-14T17:24:00;8.20;;;2.17;;
8825;SDS011;4449;50.872;4.714;2023-03-14T17:26:28;12.30;;;2.43;;
8825;SDS011;4449;50.872;4.714;2023-03-14T17:28:57;5.13;;;1.90;;
8825;SDS011;4449;50.872;4.714;2023-03-14T17:31:25;9.27;;;1.90;;